sensor_id;sensor_type;location;lat;lon;timestamp;pressure;altitude;pressure_sealevel;temperature;humidity
6134;BME280;3098;42.678;23.364;2023-05-07T00:01:13;95159.31;;;9.96;100.00
6134;BME280;3098;42.678;23.364;2023-05-07T00:03:42;95160.59;;;9.85;100.00
6134;BME280;3098;42.678;23.364;2023-05-07T00:06:09;95166.28;;;9.78;100.00
6134;BME280;3098;42.678;23.364;2023-05-07T00:08:38;95164.69;;;9.91;100.00
6134;BME280;3098;42.678;23.364;2023-05-07T00:11:04;95140.91;;;9.63;100.00
6134;BME280;3098;42.678;23.364;2023-05-07T00:13:31;95168.16;;;9.77;100.00
6134;BME280;3098;42.678;23.364;2023-05-07T00:16:00;95173.84;;;9.85;100.00
6134;BME280;3098;42.678;23.364;2023-05-07T00:18:28;95175.41;;;9.72;100.00
6134;BME280;3098;42.678;23.364;2023-05-07T00:20:56;95170.00;;;9.77;100.00
6134;BME280;3098;42.678;23.364;2023-05-07T00:23:23;95163.75;;;9.73;100.00
6134;BME280;3098;42.678;23.364;2023-05-07T00:25:50;95158.03;;;9.79;100.00
6134;BME280;3098;42.678;23.364;2023-05-07T00:28:17;95134.91;;;9.58;100.00
6134;BME280;3098;42.678;23.364;2023-05-07T00:30:45;95169.34;;;9.71;100.00
6134;BME280;3098;42.678;23.364;2023-05-07T00:33:12;95164.84;;;9.58;100.00
6134;BME280;3098;42.678;23.364;2023-05-07T00:35:39;95163.25;;;9.57;100.00
6134;BME280;3098;42.678;23.364;2023-05-07T00:38:07;95139.22;;;9.27;100.00
6134;BME280;3098;42.678;23.364;2023-05-07T00:40:34;95170.78;;;9.37;100.00
6134;BME280;3098;42.678;23.364;2023-05-07T00:43:01;95168.34;;;9.40;100.00
6134;BME280;3098;42.678;23.364;2023-05-07T00:45:28;95163.94;;;9.22;100.00
6134;BME280;3098;42.678;23.364;2023-05-07T00:47:57;95168.22;;;9.18;100.00
6134;BME280;3098;42.678;23.364;2023-05-07T00:50:26;95163.81;;;9.13;100.00
6134;BME280;3098;42.678;23.364;2023-05-07T00:52:55;95139.44;;;8.84;100.00
6134;BME280;3098;42.678;23.364;2023-05-07T00:55:23;95181.34;;;9.09;100.00
6134;BME280;3098;42.678;23.364;2023-05-07T00:57:51;95180.84;;;9.07;100.00
6134;BME280;3098;42.678;23.364;2023-05-07T01:00:18;95110.03;;;8.72;100.00
6134;BME280;3098;42.678;23.364;2023-05-07T01:02:46;95184.09;;;9.18;100.00
6134;BME280;3098;42.678;23.364;2023-05-07T01:05:15;95182.56;;;9.31;100.00
6134;BME280;3098;42.678;23.364;2023-05-07T01:07:45;95184.13;;;9.32;100.00
6134;BME280;3098;42.678;23.364;2023-05-07T01:10:15;95179.91;;;9.31;100.00
6134;BME280;3098;42.678;23.364;2023-05-07T01:12:46;95131.53;;;8.98;100.00
6134;BME280;3098;42.678;23.364;2023-05-07T01:15:15;95157.63;;;9.18;100.00
6134;BME280;3098;42.678;23.364;2023-05-07T01:17:43;95173.03;;;9.30;100.00
6134;BME280;3098;42.678;23.364;2023-05-07T01:20:11;95158.91;;;9.07;100.00
6134;BME280;3098;42.678;23.364;2023-05-07T01:22:40;95146.56;;;9.02;100.00
6134;BME280;3098;42.678;23.364;2023-05-07T01:25:09;95179.13;;;9.30;100.00
6134;BME280;3098;42.678;23.364;2023-05-07T01:27:37;95171.97;;;9.31;100.00
6134;BME280;3098;42.678;23.364;2023-05-07T01:30:04;95161.06;;;9.18;100.00
6134;BME280;3098;42.678;23.364;2023-05-07T01:32:35;95158.00;;;9.11;100.00
6134;BME280;3098;42.678;23.364;2023-05-07T01:35:05;95171.09;;;9.21;100.00
6134;BME280;3098;42.678;23.364;2023-05-07T01:37:34;95176.28;;;9.27;100.00
6134;BME280;3098;42.678;23.364;2023-05-07T01:40:03;95153.13;;;9.18;100.00
6134;BME280;3098;42.678;23.364;2023-05-07T01:42:31;95173.75;;;9.35;100.00
6134;BME280;3098;42.678;23.364;2023-05-07T01:44:58;95158.66;;;9.36;100.00
6134;BME280;3098;42.678;23.364;2023-05-07T01:47:25;95165.91;;;9.30;100.00
6134;BME280;3098;42.678;23.364;2023-05-07T01:49:53;95167.44;;;9.31;100.00
6134;BME280;3098;42.678;23.364;2023-05-07T01:52:21;95154.31;;;9.40;100.00
6134;BME280;3098;42.678;23.364;2023-05-07T01:54:50;95155.91;;;9.41;100.00
6134;BME280;3098;42.678;23.364;2023-05-07T01:57:18;95151.59;;;9.45;100.00
6134;BME280;3098;42.678;23.364;2023-05-07T01:59:47;95148.84;;;9.36;100.00
6134;BME280;3098;42.678;23.364;2023-05-07T02:02:14;95127.94;;;9.21;100.00
6134;BME280;3098;42.678;23.364;2023-05-07T02:04:41;95126.25;;;9.11;100.00
6134;BME280;3098;42.678;23.364;2023-05-07T02:07:08;95119.22;;;9.07;100.00
6134;BME280;3098;42.678;23.364;2023-05-07T02:09:35;95086.88;;;8.96;100.00
6134;BME280;3098;42.678;23.364;2023-05-07T02:12:02;95116.78;;;9.24;100.00
6134;BME280;3098;42.678;23.364;2023-05-07T02:14:31;95129.84;;;9.48;100.00
6134;BME280;3098;42.678;23.364;2023-05-07T02:16:58;95101.00;;;9.33;100.00
6134;BME280;3098;42.678;23.364;2023-05-07T02:19:25;95105.97;;;9.34;100.00
6134;BME280;3098;42.678;23.364;2023-05-07T02:21:52;95108.72;;;9.29;100.00
6134;BME280;3098;42.678;23.364;2023-05-07T02:24:20;95131.28;;;9.40;100.00
6134;BME280;3098;42.678;23.364;2023-05-07T02:26:46;95140.13;;;9.49;100.00
6134;BME280;3098;42.678;23.364;2023-05-07T02:29:14;95136.97;;;9.47;100.00
6134;BME280;3098;42.678;23.364;2023-05-07T02:31:42;95111.97;;;9.26;100.00
6134;BME280;3098;42.678;23.364;2023-05-07T02:34:10;95088.94;;;9.13;100.00
6134;BME280;3098;42.678;23.364;2023-05-07T02:36:37;95093.13;;;9.14;100.00
6134;BME280;3098;42.678;23.364;2023-05-07T02:39:04;95072.84;;;8.96;100.00
6134;BME280;3098;42.678;23.364;2023-05-07T02:41:31;95100.69;;;9.20;100.00
6134;BME280;3098;42.678;23.364;2023-05-07T02:43:58;95018.53;;;8.57;100.00
6134;BME280;3098;42.678;23.364;2023-05-07T02:46:25;95011.97;;;8.68;100.00
6134;BME280;3098;42.678;23.364;2023-05-07T02:48:54;95006.53;;;8.79;100.00
6134;BME280;3098;42.678;23.364;2023-05-07T02:51:22;95105.59;;;9.54;100.00
6134;BME280;3098;42.678;23.364;2023-05-07T02:53:49;95130.63;;;9.62;100.00
6134;BME280;3098;42.678;23.364;2023-05-07T02:56:16;95134.59;;;9.59;100.00
6134;BME280;3098;42.678;23.364;2023-05-07T02:58:43;95127.06;;;9.53;100.00
6134;BME280;3098;42.678;23.364;2023-05-07T03:01:10;95139.22;;;9.54;100.00
6134;BME280;3098;42.678;23.364;2023-05-07T03:03:39;95141.47;;;9.60;100.00
6134;BME280;3098;42.678;23.364;2023-05-07T03:06:08;95139.63;;;9.61;100.00
6134;BME280;3098;42.678;23.364;2023-05-07T03:08:35;95150.59;;;9.54;100.00
6134;BME280;3098;42.678;23.364;2023-05-07T03:11:03;95108.06;;;9.23;100.00
6134;BME280;3098;42.678;23.364;2023-05-07T03:13:30;95156.78;;;9.50;100.00
6134;BME280;3098;42.678;23.364;2023-05-07T03:15:57;95125.50;;;9.24;100.00
6134;BME280;3098;42.678;23.364;2023-05-07T03:18:25;95101.75;;;9.06;100.00
6134;BME280;3098;42.678;23.364;2023-05-07T03:20:52;95118.63;;;9.10;100.00
6134;BME280;3098;42.678;23.364;2023-05-07T03:23:21;95166.97;;;9.43;100.00
6134;BME280;3098;42.678;23.364;2023-05-07T03:25:48;95168.81;;;9.42;100.00
6134;BME280;3098;42.678;23.364;2023-05-07T03:28:15;95080.00;;;8.82;100.00
6134;BME280;3098;42.678;23.364;2023-05-07T03:30:42;95175.31;;;9.50;100.00
6134;BME280;3098;42.678;23.364;2023-05-07T03:33:09;94933.34;;;8.01;100.00
6134;BME280;3098;42.678;23.364;2023-05-07T03:35:36;95082.97;;;9.07;100.00
6134;BME280;3098;42.678;23.364;2023-05-07T03:38:03;95171.19;;;9.71;100.00
6134;BME280;3098;42.678;23.364;2023-05-07T03:40:32;95152.56;;;9.62;100.00
6134;BME280;3098;42.678;23.364;2023-05-07T03:43:00;95179.81;;;9.76;100.00
6134;BME280;3098;42.678;23.364;2023-05-07T03:45:27;95178.75;;;9.77;100.00
6134;BME280;3098;42.678;23.364;2023-05-07T03:47:53;95175.50;;;9.80;100.00
6134;BME280;3098;42.678;23.364;2023-05-07T03:50:21;95163.44;;;9.74;100.00
6134;BME280;3098;42.678;23.364;2023-05-07T03:52:49;95174.91;;;9.97;100.00
6134;BME280;3098;42.678;23.364;2023-05-07T03:55:16;95178.25;;;9.89;100.00
6134;BME280;3098;42.678;23.364;2023-05-07T03:57:45;95168.72;;;9.88;100.00
6134;BME280;3098;42.678;23.364;2023-05-07T04:00:13;95177.94;;;10.04;100.00
6134;BME280;3098;42.678;23.364;2023-05-07T04:02:40;95144.50;;;9.81;100.00
6134;BME280;3098;42.678;23.364;2023-05-07T04:05:09;95187.94;;;10.34;100.00
6134;BME280;3098;42.678;23.364;2023-05-07T04:07:36;95189.97;;;10.37;100.00
6134;BME280;3098;42.678;23.364;2023-05-07T04:10:04;95187.59;;;10.50;100.00
6134;BME280;3098;42.678;23.364;2023-05-07T04:12:32;95166.31;;;10.27;100.00
6134;BME280;3098;42.678;23.364;2023-05-07T04:15:00;95195.25;;;10.51;100.00
6134;BME280;3098;42.678;23.364;2023-05-07T04:17:28;95128.06;;;10.20;100.00
6134;BME280;3098;42.678;23.364;2023-05-07T04:19:55;95207.13;;;10.76;100.00
6134;BME280;3098;42.678;23.364;2023-05-07T04:22:22;95197.50;;;10.80;100.00
6134;BME280;3098;42.678;23.364;2023-05-07T04:24:49;95214.16;;;10.94;100.00
6134;BME280;3098;42.678;23.364;2023-05-07T04:27:16;95213.78;;;11.09;100.00
6134;BME280;3098;42.678;23.364;2023-05-07T04:29:44;95213.09;;;11.26;100.00
6134;BME280;3098;42.678;23.364;2023-05-07T04:32:14;95216.59;;;11.35;100.00
6134;BME280;3098;42.678;23.364;2023-05-07T04:34:42;95183.53;;;11.19;100.00
6134;BME280;3098;42.678;23.364;2023-05-07T04:37:09;95215.72;;;11.48;100.00
6134;BME280;3098;42.678;23.364;2023-05-07T04:39:36;95227.63;;;11.81;100.00
6134;BME280;3098;42.678;23.364;2023-05-07T04:42:04;95225.50;;;12.00;100.00
6134;BME280;3098;42.678;23.364;2023-05-07T04:44:32;95196.72;;;11.94;100.00
6134;BME280;3098;42.678;23.364;2023-05-07T04:47:00;95176.22;;;11.55;100.00
6134;BME280;3098;42.678;23.364;2023-05-07T04:49:28;95198.75;;;11.97;100.00
6134;BME280;3098;42.678;23.364;2023-05-07T04:51:56;95159.34;;;11.99;100.00
6134;BME280;3098;42.678;23.364;2023-05-07T04:54:24;95227.03;;;12.58;100.00
6134;BME280;3098;42.678;23.364;2023-05-07T04:56:52;95223.44;;;12.71;100.00
6134;BME280;3098;42.678;23.364;2023-05-07T04:59:19;95185.03;;;13.23;100.00
6134;BME280;3098;42.678;23.364;2023-05-07T05:01:46;95221.63;;;15.19;100.00
6134;BME280;3098;42.678;23.364;2023-05-07T05:04:14;95176.78;;;16.54;92.02
6134;BME280;3098;42.678;23.364;2023-05-07T05:06:42;95217.38;;;18.77;81.80
6134;BME280;3098;42.678;23.364;2023-05-07T05:09:10;95111.13;;;19.63;66.58
6134;BME280;3098;42.678;23.364;2023-05-07T05:11:38;95210.22;;;21.74;56.96
6134;BME280;3098;42.678;23.364;2023-05-07T05:14:06;95108.84;;;22.31;50.76
6134;BME280;3098;42.678;23.364;2023-05-07T05:16:33;95126.31;;;21.90;50.42
6134;BME280;3098;42.678;23.364;2023-05-07T05:19:02;95210.09;;;22.45;49.69
6134;BME280;3098;42.678;23.364;2023-05-07T05:21:31;95149.03;;;22.37;47.76
6134;BME280;3098;42.678;23.364;2023-05-07T05:23:59;95140.41;;;22.75;47.48
6134;BME280;3098;42.678;23.364;2023-05-07T05:26:27;95188.38;;;24.14;44.97
6134;BME280;3098;42.678;23.364;2023-05-07T05:28:54;95174.78;;;23.96;42.80
6134;BME280;3098;42.678;23.364;2023-05-07T05:31:21;95151.97;;;23.93;43.55
6134;BME280;3098;42.678;23.364;2023-05-07T05:33:48;95213.66;;;22.56;48.34
6134;BME280;3098;42.678;23.364;2023-05-07T05:36:15;95213.53;;;24.74;43.62
6134;BME280;3098;42.678;23.364;2023-05-07T05:38:43;95178.63;;;23.70;43.12
6134;BME280;3098;42.678;23.364;2023-05-07T05:41:11;95217.63;;;25.35;40.71
6134;BME280;3098;42.678;23.364;2023-05-07T05:43:39;95184.97;;;26.66;37.34
6134;BME280;3098;42.678;23.364;2023-05-07T05:46:06;95175.84;;;26.87;37.14
6134;BME280;3098;42.678;23.364;2023-05-07T05:48:34;95197.66;;;24.62;39.67
6134;BME280;3098;42.678;23.364;2023-05-07T05:51:01;95221.22;;;25.00;40.79
6134;BME280;3098;42.678;23.364;2023-05-07T05:53:29;95189.84;;;23.65;42.96
6134;BME280;3098;42.678;23.364;2023-05-07T05:55:56;95226.75;;;24.40;41.46
6134;BME280;3098;42.678;23.364;2023-05-07T05:58:25;95217.19;;;25.58;39.97
6134;BME280;3098;42.678;23.364;2023-05-07T06:00:52;95200.78;;;25.79;39.21
6134;BME280;3098;42.678;23.364;2023-05-07T06:03:19;95206.53;;;26.43;38.18
6134;BME280;3098;42.678;23.364;2023-05-07T06:05:46;95179.00;;;24.92;39.72
6134;BME280;3098;42.678;23.364;2023-05-07T06:08:13;95197.25;;;24.88;41.09
6134;BME280;3098;42.678;23.364;2023-05-07T06:10:41;95222.97;;;23.30;44.20
6134;BME280;3098;42.678;23.364;2023-05-07T06:13:09;95146.56;;;24.00;41.24
6134;BME280;3098;42.678;23.364;2023-05-07T06:15:40;95137.81;;;25.22;39.04
6134;BME280;3098;42.678;23.364;2023-05-07T06:18:10;95213.91;;;24.90;39.42
6134;BME280;3098;42.678;23.364;2023-05-07T06:20:37;95220.09;;;24.70;40.27
6134;BME280;3098;42.678;23.364;2023-05-07T06:23:04;95211.38;;;26.21;38.79
6134;BME280;3098;42.678;23.364;2023-05-07T06:25:31;95184.88;;;24.80;38.80
6134;BME280;3098;42.678;23.364;2023-05-07T06:27:58;94983.09;;;21.83;44.09
6134;BME280;3098;42.678;23.364;2023-05-07T06:30:27;95207.34;;;24.38;41.91
6134;BME280;3098;42.678;23.364;2023-05-07T06:32:57;95148.94;;;25.42;38.96
6134;BME280;3098;42.678;23.364;2023-05-07T06:35:25;95172.16;;;26.63;37.05
6134;BME280;3098;42.678;23.364;2023-05-07T06:37:52;95090.97;;;25.04;38.04
6134;BME280;3098;42.678;23.364;2023-05-07T06:40:19;95186.38;;;26.37;37.01
6134;BME280;3098;42.678;23.364;2023-05-07T06:42:46;95172.00;;;26.77;36.39
6134;BME280;3098;42.678;23.364;2023-05-07T06:45:14;95200.97;;;27.66;34.99
6134;BME280;3098;42.678;23.364;2023-05-07T06:47:41;95136.81;;;27.88;33.94
6134;BME280;3098;42.678;23.364;2023-05-07T06:50:10;95146.41;;;28.23;33.83
6134;BME280;3098;42.678;23.364;2023-05-07T06:52:37;95191.78;;;26.85;36.27
6134;BME280;3098;42.678;23.364;2023-05-07T06:55:06;95189.69;;;26.59;36.12
6134;BME280;3098;42.678;23.364;2023-05-07T06:57:34;95118.47;;;26.30;36.09
6134;BME280;3098;42.678;23.364;2023-05-07T07:00:02;95155.63;;;26.44;36.20
6134;BME280;3098;42.678;23.364;2023-05-07T07:02:29;95193.25;;;28.18;33.97
6134;BME280;3098;42.678;23.364;2023-05-07T07:04:57;95084.53;;;27.70;33.06
6134;BME280;3098;42.678;23.364;2023-05-07T07:07:28;95192.34;;;29.37;32.25
6134;BME280;3098;42.678;23.364;2023-05-07T07:09:56;95181.41;;;26.73;36.13
6134;BME280;3098;42.678;23.364;2023-05-07T07:12:23;95186.91;;;28.94;32.97
6134;BME280;3098;42.678;23.364;2023-05-07T07:14:51;95196.47;;;28.36;33.16
6134;BME280;3098;42.678;23.364;2023-05-07T07:17:18;95176.81;;;27.37;34.91
6134;BME280;3098;42.678;23.364;2023-05-07T07:19:45;95115.66;;;25.27;37.97
6134;BME280;3098;42.678;23.364;2023-05-07T07:22:12;95113.06;;;25.06;38.59
6134;BME280;3098;42.678;23.364;2023-05-07T07:24:41;95167.19;;;27.60;34.88
6134;BME280;3098;42.678;23.364;2023-05-07T07:27:07;95175.59;;;28.26;33.74
6134;BME280;3098;42.678;23.364;2023-05-07T07:29:35;95149.63;;;27.30;34.92
6134;BME280;3098;42.678;23.364;2023-05-07T07:32:02;95163.25;;;26.59;35.66
6134;BME280;3098;42.678;23.364;2023-05-07T07:34:29;95187.13;;;25.86;38.21
6134;BME280;3098;42.678;23.364;2023-05-07T07:36:57;95181.28;;;23.38;42.45
6134;BME280;3098;42.678;23.364;2023-05-07T07:39:30;95160.91;;;22.83;44.82
6134;BME280;3098;42.678;23.364;2023-05-07T07:42:00;95178.81;;;25.45;39.55
6134;BME280;3098;42.678;23.364;2023-05-07T07:44:28;95141.03;;;26.27;38.81
6134;BME280;3098;42.678;23.364;2023-05-07T07:46:57;95174.50;;;25.58;38.21
6134;BME280;3098;42.678;23.364;2023-05-07T07:49:24;95125.72;;;25.96;38.19
6134;BME280;3098;42.678;23.364;2023-05-07T07:51:51;95139.75;;;25.87;37.02
6134;BME280;3098;42.678;23.364;2023-05-07T07:54:18;95125.38;;;25.28;38.36
6134;BME280;3098;42.678;23.364;2023-05-07T07:56:47;95080.16;;;24.97;36.93
6134;BME280;3098;42.678;23.364;2023-05-07T07:59:15;95184.03;;;23.63;41.35
6134;BME280;3098;42.678;23.364;2023-05-07T08:01:44;95174.41;;;22.21;44.62
6134;BME280;3098;42.678;23.364;2023-05-07T08:04:14;95161.06;;;21.95;45.09
6134;BME280;3098;42.678;23.364;2023-05-07T08:06:42;95180.84;;;23.29;43.24
6134;BME280;3098;42.678;23.364;2023-05-07T08:09:09;95182.28;;;23.09;43.14
6134;BME280;3098;42.678;23.364;2023-05-07T08:11:36;95175.13;;;24.93;39.80
6134;BME280;3098;42.678;23.364;2023-05-07T08:14:04;95178.63;;;23.60;41.23
6134;BME280;3098;42.678;23.364;2023-05-07T08:16:32;95173.25;;;23.88;40.79
6134;BME280;3098;42.678;23.364;2023-05-07T08:19:00;95169.25;;;25.89;38.11
6134;BME280;3098;42.678;23.364;2023-05-07T08:21:30;95149.44;;;27.48;35.28
6134;BME280;3098;42.678;23.364;2023-05-07T08:23:57;94985.16;;;23.01;39.59
6134;BME280;3098;42.678;23.364;2023-05-07T08:26:25;95173.25;;;23.88;41.33
6134;BME280;3098;42.678;23.364;2023-05-07T08:28:52;95141.38;;;26.29;37.54
6134;BME280;3098;42.678;23.364;2023-05-07T08:31:19;95165.31;;;25.31;39.42
6134;BME280;3098;42.678;23.364;2023-05-07T08:33:49;95167.38;;;24.99;39.11
6134;BME280;3098;42.678;23.364;2023-05-07T08:36:16;95173.03;;;26.05;37.56
6134;BME280;3098;42.678;23.364;2023-05-07T08:38:44;95148.31;;;25.86;36.90
6134;BME280;3098;42.678;23.364;2023-05-07T08:41:12;95162.41;;;27.07;35.37
6134;BME280;3098;42.678;23.364;2023-05-07T08:43:41;95156.66;;;26.12;36.48
6134;BME280;3098;42.678;23.364;2023-05-07T08:46:09;95158.97;;;26.17;37.31
6134;BME280;3098;42.678;23.364;2023-05-07T08:48:37;95133.38;;;26.56;36.21
6134;BME280;3098;42.678;23.364;2023-05-07T08:51:06;95158.25;;;27.86;33.64
6134;BME280;3098;42.678;23.364;2023-05-07T08:53:33;95092.59;;;29.09;31.55
6134;BME280;3098;42.678;23.364;2023-05-07T08:56:01;94985.13;;;27.01;33.05
6134;BME280;3098;42.678;23.364;2023-05-07T08:58:29;95125.56;;;24.86;37.16
6134;BME280;3098;42.678;23.364;2023-05-07T09:00:57;95120.69;;;26.42;35.57
6134;BME280;3098;42.678;23.364;2023-05-07T09:03:26;95125.50;;;27.63;32.97
6134;BME280;3098;42.678;23.364;2023-05-07T09:05:53;95129.50;;;28.31;31.71
6134;BME280;3098;42.678;23.364;2023-05-07T09:08:24;95102.72;;;26.48;33.83
6134;BME280;3098;42.678;23.364;2023-05-07T09:10:52;95099.34;;;27.08;32.82
6134;BME280;3098;42.678;23.364;2023-05-07T09:13:20;95116.50;;;28.39;30.82
6134;BME280;3098;42.678;23.364;2023-05-07T09:15:48;95137.53;;;28.62;30.40
6134;BME280;3098;42.678;23.364;2023-05-07T09:18:15;95094.19;;;29.62;29.04
6134;BME280;3098;42.678;23.364;2023-05-07T09:20:45;95126.22;;;30.13;28.11
6134;BME280;3098;42.678;23.364;2023-05-07T09:23:14;95092.88;;;30.02;28.21
6134;BME280;3098;42.678;23.364;2023-05-07T09:25:42;95125.22;;;29.16;29.24
6134;BME280;3098;42.678;23.364;2023-05-07T09:28:10;95083.13;;;26.67;31.36
6134;BME280;3098;42.678;23.364;2023-05-07T09:30:37;95118.25;;;23.56;35.67
6134;BME280;3098;42.678;23.364;2023-05-07T09:33:04;95096.22;;;23.57;36.58
6134;BME280;3098;42.678;23.364;2023-05-07T09:35:31;95054.34;;;23.05;36.48
6134;BME280;3098;42.678;23.364;2023-05-07T09:38:00;95106.09;;;25.74;33.65
6134;BME280;3098;42.678;23.364;2023-05-07T09:40:29;95111.00;;;25.28;33.54
6134;BME280;3098;42.678;23.364;2023-05-07T09:43:08;95107.06;;;24.31;34.21
6134;BME280;3098;42.678;23.364;2023-05-07T09:45:36;95112.47;;;23.61;34.51
6134;BME280;3098;42.678;23.364;2023-05-07T09:48:05;95060.13;;;24.59;33.26
6134;BME280;3098;42.678;23.364;2023-05-07T09:50:36;95051.00;;;25.11;33.63
6134;BME280;3098;42.678;23.364;2023-05-07T09:53:10;95089.94;;;26.45;32.20
6134;BME280;3098;42.678;23.364;2023-05-07T09:55:38;94994.00;;;24.28;32.70
6134;BME280;3098;42.678;23.364;2023-05-07T09:58:07;95092.88;;;26.24;32.93
6134;BME280;3098;42.678;23.364;2023-05-07T10:00:34;95066.69;;;26.74;30.74
6134;BME280;3098;42.678;23.364;2023-05-07T10:03:03;95092.06;;;27.32;30.84
6134;BME280;3098;42.678;23.364;2023-05-07T10:05:31;94995.38;;;24.68;31.95
6134;BME280;3098;42.678;23.364;2023-05-07T10:07:59;95061.09;;;25.04;33.67
6134;BME280;3098;42.678;23.364;2023-05-07T10:10:27;95011.25;;;25.42;30.92
6134;BME280;3098;42.678;23.364;2023-05-07T10:12:55;95085.72;;;26.78;30.66
6134;BME280;3098;42.678;23.364;2023-05-07T10:15:26;95018.75;;;27.14;27.41
6134;BME280;3098;42.678;23.364;2023-05-07T10:17:55;95005.06;;;26.91;28.20
6134;BME280;3098;42.678;23.364;2023-05-07T10:20:23;95040.28;;;28.51;27.30
6134;BME280;3098;42.678;23.364;2023-05-07T10:22:52;95085.66;;;29.04;27.23
6134;BME280;3098;42.678;23.364;2023-05-07T10:25:23;95072.59;;;28.53;27.05
6134;BME280;3098;42.678;23.364;2023-05-07T10:27:53;95081.94;;;26.31;28.79
6134;BME280;3098;42.678;23.364;2023-05-07T10:30:34;95059.47;;;25.79;28.74
6134;BME280;3098;42.678;23.364;2023-05-07T10:33:08;95034.72;;;25.70;29.29
6134;BME280;3098;42.678;23.364;2023-05-07T10:35:39;94974.84;;;25.33;29.42
6134;BME280;3098;42.678;23.364;2023-05-07T10:38:07;94997.16;;;25.58;29.57
6134;BME280;3098;42.678;23.364;2023-05-07T10:40:35;95061.13;;;27.72;27.91
6134;BME280;3098;42.678;23.364;2023-05-07T10:43:03;94950.88;;;27.96;26.99
6134;BME280;3098;42.678;23.364;2023-05-07T10:45:32;95005.97;;;26.51;28.58
6134;BME280;3098;42.678;23.364;2023-05-07T10:48:08;94998.34;;;26.69;29.84
6134;BME280;3098;42.678;23.364;2023-05-07T10:50:36;95047.94;;;27.44;29.00
6134;BME280;3098;42.678;23.364;2023-05-07T10:53:28;95028.00;;;26.26;29.06
6134;BME280;3098;42.678;23.364;2023-05-07T10:56:24;95051.00;;;26.89;30.40
6134;BME280;3098;42.678;23.364;2023-05-07T10:58:55;94936.91;;;26.41;27.90
6134;BME280;3098;42.678;23.364;2023-05-07T11:01:52;95036.00;;;25.99;29.89
6134;BME280;3098;42.678;23.364;2023-05-07T11:04:20;95044.00;;;25.73;30.18
6134;BME280;3098;42.678;23.364;2023-05-07T11:10:20;95041.66;;;25.75;30.04
6134;BME280;3098;42.678;23.364;2023-05-07T11:12:56;95018.31;;;26.25;28.90
6134;BME280;3098;42.678;23.364;2023-05-07T11:15:40;94993.75;;;26.62;29.10
6134;BME280;3098;42.678;23.364;2023-05-07T11:18:14;95034.41;;;27.10;27.96
6134;BME280;3098;42.678;23.364;2023-05-07T11:20:55;95028.97;;;26.43;28.53
6134;BME280;3098;42.678;23.364;2023-05-07T11:26:46;94963.25;;;26.78;27.45
6134;BME280;3098;42.678;23.364;2023-05-07T11:29:16;94980.75;;;28.46;26.70
6134;BME280;3098;42.678;23.364;2023-05-07T11:31:48;95026.84;;;28.41;25.95
6134;BME280;3098;42.678;23.364;2023-05-07T11:34:21;95015.66;;;28.55;24.96
6134;BME280;3098;42.678;23.364;2023-05-07T11:36:50;95028.41;;;27.95;26.37
6134;BME280;3098;42.678;23.364;2023-05-07T11:39:27;94908.75;;;26.55;27.29
6134;BME280;3098;42.678;23.364;2023-05-07T11:41:55;95019.69;;;27.04;26.96
6134;BME280;3098;42.678;23.364;2023-05-07T11:44:22;95025.69;;;26.58;27.27
6134;BME280;3098;42.678;23.364;2023-05-07T11:46:49;94949.47;;;25.02;29.87
6134;BME280;3098;42.678;23.364;2023-05-07T11:49:17;95012.25;;;25.04;29.01
6134;BME280;3098;42.678;23.364;2023-05-07T11:51:47;94992.53;;;23.71;31.17
6134;BME280;3098;42.678;23.364;2023-05-07T11:54:16;95008.34;;;24.18;30.86
6134;BME280;3098;42.678;23.364;2023-05-07T11:56:44;94976.53;;;24.36;29.95
6134;BME280;3098;42.678;23.364;2023-05-07T11:59:18;95018.81;;;24.20;30.07
6134;BME280;3098;42.678;23.364;2023-05-07T12:01:46;94936.84;;;22.78;31.62
6134;BME280;3098;42.678;23.364;2023-05-07T12:04:19;95003.38;;;23.71;32.93
6134;BME280;3098;42.678;23.364;2023-05-07T12:06:49;94972.38;;;23.93;32.36
6134;BME280;3098;42.678;23.364;2023-05-07T12:09:16;94906.16;;;24.04;30.93
6134;BME280;3098;42.678;23.364;2023-05-07T12:11:45;94992.69;;;24.61;30.22
6134;BME280;3098;42.678;23.364;2023-05-07T12:14:12;94981.59;;;24.34;31.41
6134;BME280;3098;42.678;23.364;2023-05-07T12:16:41;94927.88;;;23.87;31.74
6134;BME280;3098;42.678;23.364;2023-05-07T12:19:09;94934.41;;;24.18;31.58
6134;BME280;3098;42.678;23.364;2023-05-07T12:21:38;94783.78;;;23.19;30.81
6134;BME280;3098;42.678;23.364;2023-05-07T12:24:07;94956.91;;;23.90;31.39
6134;BME280;3098;42.678;23.364;2023-05-07T12:26:38;94946.16;;;23.51;30.79
6134;BME280;3098;42.678;23.364;2023-05-07T12:29:06;94978.22;;;23.81;31.24
6134;BME280;3098;42.678;23.364;2023-05-07T12:31:33;94976.25;;;23.95;31.45
6134;BME280;3098;42.678;23.364;2023-05-07T12:34:00;94962.75;;;23.71;31.41
6134;BME280;3098;42.678;23.364;2023-05-07T12:36:36;94940.75;;;23.51;31.40
6134;BME280;3098;42.678;23.364;2023-05-07T12:39:05;94880.75;;;23.67;31.36
6134;BME280;3098;42.678;23.364;2023-05-07T12:41:52;94970.03;;;23.98;30.63
6134;BME280;3098;42.678;23.364;2023-05-07T12:44:22;94962.75;;;23.18;30.81
6134;BME280;3098;42.678;23.364;2023-05-07T12:46:50;94929.50;;;23.56;30.21
6134;BME280;3098;42.678;23.364;2023-05-07T12:49:17;94953.06;;;23.73;29.73
6134;BME280;3098;42.678;23.364;2023-05-07T12:51:46;94938.34;;;23.81;29.89
6134;BME280;3098;42.678;23.364;2023-05-07T12:54:14;94942.16;;;24.05;29.48
6134;BME280;3098;42.678;23.364;2023-05-07T12:56:42;94936.81;;;23.84;28.71
6134;BME280;3098;42.678;23.364;2023-05-07T12:59:10;94943.31;;;24.08;30.00
6134;BME280;3098;42.678;23.364;2023-05-07T13:01:37;94932.81;;;24.31;30.10
6134;BME280;3098;42.678;23.364;2023-05-07T13:04:04;94717.38;;;22.94;29.36
6134;BME280;3098;42.678;23.364;2023-05-07T13:06:31;94924.31;;;24.29;29.35
6134;BME280;3098;42.678;23.364;2023-05-07T13:08:59;94924.19;;;24.50;29.01
6134;BME280;3098;42.678;23.364;2023-05-07T13:11:26;94879.03;;;24.22;29.88
6134;BME280;3098;42.678;23.364;2023-05-07T13:13:55;94921.19;;;24.27;29.08
6134;BME280;3098;42.678;23.364;2023-05-07T13:16:22;94929.88;;;23.69;29.09
6134;BME280;3098;42.678;23.364;2023-05-07T13:18:50;94912.91;;;23.43;29.39
6134;BME280;3098;42.678;23.364;2023-05-07T13:21:17;94912.81;;;23.79;29.29
6134;BME280;3098;42.678;23.364;2023-05-07T13:23:45;94847.91;;;23.51;29.21